createdAt,value
2022-11-22T00:01:23.876Z,4.91
2022-11-22T00:03:53.736Z,4.89
2022-11-22T00:06:22.215Z,4.85
2022-11-22T00:08:50.737Z,4.85
2022-11-22T00:11:19.203Z,4.84
2022-11-22T00:13:47.799Z,4.85
2022-11-22T00:16:16.289Z,4.83
2022-11-22T00:18:44.815Z,4.84
2022-11-22T00:21:14.564Z,4.82
2022-11-22T00:23:43.206Z,4.80
2022-11-22T00:26:12.582Z,4.79
2022-11-22T00:28:41.143Z,4.79
2022-11-22T00:31:09.880Z,4.79
2022-11-22T00:33:38.332Z,4.80
2022-11-22T00:36:06.906Z,4.79
2022-11-22T00:38:36.874Z,4.83
2022-11-22T00:41:05.818Z,4.82
2022-11-22T00:43:34.359Z,4.85
2022-11-22T00:46:02.881Z,4.86
2022-11-22T00:48:31.379Z,4.83
2022-11-22T00:51:00.126Z,4.84
2022-11-22T00:53:28.742Z,4.89
2022-11-22T00:55:58.564Z,4.88
2022-11-22T00:58:26.998Z,4.89
2022-11-22T01:00:56.939Z,4.89
2022-11-22T01:03:26.204Z,4.91
2022-11-22T01:05:54.668Z,4.90
2022-11-22T01:08:23.431Z,4.91
2022-11-22T01:10:58.421Z,4.93
2022-11-22T01:13:28.722Z,4.93
2022-11-22T01:16:00.790Z,4.93
2022-11-22T01:18:29.762Z,4.95
2022-11-22T01:20:58.323Z,4.98
2022-11-22T01:23:27.022Z,5.00
2022-11-22T01:25:55.538Z,5.00
2022-11-22T01:28:25.853Z,5.01
2022-11-22T01:30:55.446Z,5.00
2022-11-22T01:33:24.008Z,5.02
2022-11-22T01:35:52.429Z,5.01
2022-11-22T01:38:20.941Z,5.01
2022-11-22T01:40:49.414Z,5.00
2022-11-22T01:43:20.514Z,5.02
2022-11-22T01:45:55.943Z,5.04
2022-11-22T01:48:36.524Z,5.06
2022-11-22T01:51:11.007Z,5.05
2022-11-22T01:53:40.851Z,5.09
2022-11-22T01:56:11.169Z,5.08
2022-11-22T01:58:42.196Z,5.09
2022-11-22T02:01:12.528Z,5.06
2022-11-22T02:03:46.610Z,5.08
2022-11-22T02:06:15.835Z,5.06
2022-11-22T02:08:54.059Z,5.08
2022-11-22T02:11:22.920Z,5.14
2022-11-22T02:13:53.538Z,5.16
2022-11-22T02:16:23.847Z,5.17
2022-11-22T02:18:52.399Z,5.18
2022-11-22T02:21:21.427Z,5.20
2022-11-22T02:23:59.571Z,5.21
2022-11-22T02:26:30.944Z,5.16
2022-11-22T02:29:05.778Z,5.14
2022-11-22T02:31:37.054Z,5.18
2022-11-22T02:34:05.504Z,5.18
2022-11-22T02:36:38.734Z,5.19
2022-11-22T02:39:08.807Z,5.16
2022-11-22T02:41:38.915Z,5.17
2022-11-22T02:44:10.495Z,5.19
2022-11-22T02:46:48.306Z,5.16
2022-11-22T02:49:21.881Z,5.18
2022-11-22T02:51:51.419Z,5.17
2022-11-22T02:54:20.592Z,5.14
2022-11-22T02:56:50.679Z,5.13
2022-11-22T02:59:18.930Z,5.13
2022-11-22T03:01:48.277Z,5.13
2022-11-22T03:04:24.995Z,5.14
2022-11-22T03:06:58.967Z,5.12
2022-11-22T03:09:29.053Z,5.09
2022-11-22T03:11:59.340Z,5.07
2022-11-22T03:14:27.756Z,5.08
2022-11-22T03:16:56.295Z,5.08
2022-11-22T03:19:24.835Z,5.01
2022-11-22T03:21:53.431Z,4.96
2022-11-22T03:24:22.148Z,4.95
2022-11-22T03:26:51.271Z,4.89
2022-11-22T03:29:21.139Z,4.87
2022-11-22T03:31:49.915Z,4.79
2022-11-22T03:34:18.693Z,4.77
2022-11-22T03:36:50.546Z,4.66
2022-11-22T03:39:19.009Z,4.66
2022-11-22T03:41:47.532Z,4.63
2022-11-22T03:44:15.980Z,4.55
2022-11-22T03:46:45.819Z,4.54
2022-11-22T03:49:14.496Z,4.48
2022-11-22T03:51:43.040Z,4.38
2022-11-22T03:54:12.120Z,4.32
2022-11-22T03:56:40.595Z,4.21
2022-11-22T03:59:09.299Z,4.18
2022-11-22T04:01:37.978Z,4.22
2022-11-22T04:04:07.943Z,4.17
2022-11-22T04:06:36.432Z,4.15
2022-11-22T04:09:05.462Z,4.15
2022-11-22T04:11:34.028Z,4.15
2022-11-22T04:14:19.820Z,4.11
2022-11-22T04:16:48.668Z,4.08
2022-11-22T04:19:18.519Z,4.10
2022-11-22T04:21:45.966Z,4.08
2022-11-22T04:24:31.727Z,4.09
2022-11-22T04:27:00.253Z,4.00
2022-11-22T04:29:29.305Z,4.00
2022-11-22T04:32:15.929Z,3.98
2022-11-22T04:34:45.763Z,3.94
2022-11-22T04:37:14.254Z,3.91
2022-11-22T04:39:42.736Z,3.88
2022-11-22T04:42:28.666Z,3.86
2022-11-22T04:44:58.288Z,3.88
2022-11-22T04:47:50.001Z,3.84
2022-11-22T04:50:38.445Z,3.77
2022-11-22T04:53:07.256Z,3.79
2022-11-22T04:55:35.907Z,3.82
2022-11-22T04:58:04.655Z,3.78
2022-11-22T05:00:33.879Z,3.81
2022-11-22T05:03:03.137Z,3.75
2022-11-22T05:05:36.375Z,3.66
2022-11-22T05:08:05.438Z,3.59
2022-11-22T05:10:54.750Z,3.49
2022-11-22T05:13:25.104Z,3.43
2022-11-22T05:15:54.164Z,3.50
2022-11-22T05:18:23.646Z,3.46
2022-11-22T05:20:53.916Z,3.45
2022-11-22T05:23:41.085Z,3.43
2022-11-22T05:26:10.416Z,3.41
2022-11-22T05:28:39.976Z,3.27
2022-11-22T05:31:10.203Z,3.28
2022-11-22T05:33:41.323Z,3.27
2022-11-22T05:36:12.263Z,3.18
2022-11-22T05:38:40.984Z,3.10
2022-11-22T05:41:11.083Z,2.98
2022-11-22T05:43:40.259Z,3.04
2022-11-22T05:46:09.851Z,2.99
2022-11-22T05:48:40.604Z,2.98
2022-11-22T05:51:12.759Z,3.01
2022-11-22T05:53:42.373Z,2.98
2022-11-22T05:56:12.938Z,2.95
2022-11-22T05:58:42.104Z,2.99
2022-11-22T06:01:13.232Z,3.04
2022-11-22T06:03:42.015Z,2.92
2022-11-22T06:06:12.369Z,2.92
2022-11-22T06:08:46.752Z,2.89
2022-11-22T06:11:18.590Z,2.95
2022-11-22T06:13:49.523Z,3.00
2022-11-22T06:16:18.161Z,3.01
2022-11-22T06:18:46.630Z,2.99
2022-11-22T06:21:19.422Z,3.04
2022-11-22T06:23:48.005Z,3.03
2022-11-22T06:26:18.224Z,3.04
2022-11-22T06:28:47.261Z,3.08
2022-11-22T06:31:17.706Z,3.10
2022-11-22T06:33:46.661Z,3.12
2022-11-22T06:36:18.171Z,3.14
2022-11-22T06:38:47.329Z,3.17
2022-11-22T06:41:18.067Z,3.20
2022-11-22T06:43:49.366Z,3.26
2022-11-22T06:46:19.548Z,3.29
2022-11-22T06:48:48.455Z,3.31
2022-11-22T06:51:19.996Z,3.32
2022-11-22T06:53:49.853Z,3.30
2022-11-22T06:56:20.571Z,3.34
2022-11-22T06:58:50.637Z,3.38
2022-11-22T07:01:20.180Z,3.47
2022-11-22T07:03:49.569Z,3.52
2022-11-22T07:06:20.289Z,3.53
2022-11-22T07:08:48.963Z,3.61
2022-11-22T07:11:19.476Z,3.59
2022-11-22T07:13:49.499Z,3.59
2022-11-22T07:16:19.703Z,3.57
2022-11-22T07:18:48.894Z,3.60
2022-11-22T07:21:20.656Z,3.61
2022-11-22T07:23:50.808Z,3.63
2022-11-22T07:26:19.730Z,3.66
2022-11-22T07:28:48.620Z,3.67
2022-11-22T07:31:18.690Z,3.69
2022-11-22T07:33:47.294Z,3.69
2022-11-22T07:36:17.957Z,3.70
2022-11-22T07:38:49.102Z,3.80
2022-11-22T07:41:19.339Z,3.78
2022-11-22T07:43:47.898Z,3.76
2022-11-22T07:46:23.226Z,3.78
2022-11-22T07:48:52.018Z,3.82
2022-11-22T07:51:20.675Z,3.82
2022-11-22T07:53:50.567Z,3.84
2022-11-22T07:56:19.438Z,3.87
2022-11-22T07:58:48.572Z,3.88
2022-11-22T08:01:18.695Z,3.91
2022-11-22T08:03:47.319Z,3.90
2022-11-22T08:06:16.485Z,3.94
2022-11-22T08:08:45.615Z,3.98
2022-11-22T08:11:15.839Z,4.00
2022-11-22T08:13:44.557Z,4.07
2022-11-22T08:16:14.932Z,4.13
2022-11-22T08:18:48.313Z,4.15
2022-11-22T08:21:18.933Z,4.21
2022-11-22T08:23:48.464Z,4.26
2022-11-22T08:26:21.017Z,4.32
2022-11-22T08:28:49.497Z,4.38
2022-11-22T08:31:20.019Z,4.42
2022-11-22T08:33:49.176Z,4.48
2022-11-22T08:36:17.672Z,4.56
2022-11-22T08:38:48.175Z,4.62
2022-11-22T08:41:18.031Z,4.65
2022-11-22T08:43:46.663Z,4.67
2022-11-22T08:46:15.210Z,4.70
2022-11-22T08:48:43.687Z,4.75
2022-11-22T08:51:14.692Z,4.81
2022-11-22T08:53:44.830Z,4.92
2022-11-22T08:56:13.970Z,5.00
2022-11-22T08:58:44.354Z,5.07
2022-11-22T09:01:14.724Z,5.12
2022-11-22T09:03:44.228Z,5.16
2022-11-22T09:11:51.258Z,5.25
2022-11-22T09:14:21.067Z,5.39
2022-11-22T09:16:49.610Z,5.46
2022-11-22T09:19:18.211Z,5.52
2022-11-22T09:21:46.936Z,5.55
2022-11-22T09:24:15.595Z,5.56
2022-11-22T09:26:44.070Z,5.55
2022-11-22T09:29:12.847Z,5.62
2022-11-22T09:31:42.788Z,5.69
2022-11-22T09:34:11.288Z,5.76
2022-11-22T09:36:39.855Z,5.80
2022-11-22T09:39:09.862Z,5.82
2022-11-22T09:41:47.798Z,5.91
2022-11-22T09:44:25.948Z,6.05
2022-11-22T09:46:59.432Z,6.10
2022-11-22T09:49:31.053Z,6.13
2022-11-22T09:52:07.874Z,6.24
2022-11-22T09:54:43.467Z,6.26
2022-11-22T09:57:19.287Z,6.34
2022-11-22T09:59:50.436Z,6.44
2022-11-22T10:02:26.572Z,6.53
2022-11-22T10:04:58.210Z,6.59
2022-11-22T10:07:32.051Z,6.67
2022-11-22T10:10:05.466Z,6.68
2022-11-22T10:12:39.821Z,6.79
2022-11-22T10:15:20.285Z,6.82
2022-11-22T10:17:55.572Z,6.95
2022-11-22T10:20:25.903Z,7.04
2022-11-22T10:22:55.087Z,7.09
2022-11-22T10:25:39.277Z,7.21
2022-11-22T10:28:14.948Z,7.30
2022-11-22T10:30:53.287Z,7.34
2022-11-22T10:33:29.114Z,7.41
2022-11-22T10:36:10.368Z,7.48
2022-11-22T10:38:57.883Z,7.45
2022-11-22T10:41:38.397Z,7.58
2022-11-22T10:44:20.880Z,7.67
2022-11-22T10:46:59.984Z,7.76
2022-11-22T10:49:42.419Z,7.66
2022-11-22T10:52:22.241Z,7.75
2022-11-22T10:55:02.995Z,7.78
2022-11-22T10:57:38.467Z,7.86
2022-11-22T11:00:20.627Z,7.87
2022-11-22T11:03:04.035Z,7.82
2022-11-22T11:06:01.004Z,7.93
2022-11-22T11:09:02.695Z,8.00
2022-11-22T11:11:27.899Z,8.04
2022-11-22T11:14:01.875Z,8.11
2022-11-22T11:16:34.791Z,8.06
2022-11-22T11:19:16.454Z,8.09
2022-11-22T11:21:46.319Z,8.09
2022-11-22T11:24:16.478Z,8.15
2022-11-22T11:26:54.216Z,8.07
2022-11-22T11:29:47.774Z,8.15
2022-11-22T11:32:17.523Z,8.23
2022-11-22T11:34:54.014Z,8.11
2022-11-22T11:37:27.387Z,8.09
2022-11-22T11:39:56.024Z,8.09
2022-11-22T11:42:27.847Z,8.02
2022-11-22T11:45:16.494Z,7.98
2022-11-22T11:47:45.002Z,7.99
2022-11-22T11:50:24.055Z,7.84
2022-11-22T11:52:56.976Z,7.84
2022-11-22T11:55:26.371Z,7.82
2022-11-22T11:57:55.279Z,7.98
2022-11-22T12:00:28.338Z,7.95
2022-11-22T12:03:28.627Z,7.97
2022-11-22T12:06:13.104Z,7.94
2022-11-22T12:08:42.266Z,8.04
2022-11-22T12:11:15.361Z,8.05
2022-11-22T12:14:12.787Z,8.18
2022-11-22T12:16:38.678Z,8.30
2022-11-22T12:19:24.353Z,8.28
2022-11-22T12:22:02.628Z,8.35
2022-11-22T12:25:24.337Z,8.44
2022-11-22T12:27:26.684Z,8.47
2022-11-22T12:29:55.273Z,8.57
2022-11-22T12:32:29.110Z,8.56
2022-11-22T12:35:04.323Z,8.42
2022-11-22T12:37:40.193Z,8.30
2022-11-22T12:40:18.019Z,8.20
2022-11-22T12:42:50.125Z,8.15
2022-11-22T12:45:26.165Z,8.05
2022-11-22T12:47:58.319Z,8.03
2022-11-22T12:50:37.367Z,7.97
2022-11-22T12:53:11.447Z,8.04
2022-11-22T12:55:48.789Z,8.06
2022-11-22T12:58:22.404Z,8.11
2022-11-22T13:01:04.693Z,8.04
2022-11-22T13:03:36.139Z,8.08
2022-11-22T13:06:10.021Z,8.04
2022-11-22T13:08:43.403Z,8.12
2022-11-22T13:11:16.455Z,8.04
2022-11-22T13:13:47.372Z,8.10
2022-11-22T13:16:15.923Z,8.13
2022-11-22T13:18:47.771Z,8.13
2022-11-22T13:21:24.730Z,8.20
2022-11-22T13:24:15.544Z,8.20
2022-11-22T13:26:54.559Z,8.35
2022-11-22T13:29:25.264Z,8.36
2022-11-22T13:32:06.090Z,8.39
2022-11-22T13:34:37.254Z,8.49
2022-11-22T13:37:11.369Z,8.43
2022-11-22T13:39:44.667Z,8.54
2022-11-22T13:42:18.574Z,8.59
2022-11-22T13:45:08.112Z,8.45
2022-11-22T13:47:44.023Z,8.45
2022-11-22T13:50:58.773Z,8.39
2022-11-22T13:53:34.559Z,8.38
2022-11-22T13:56:46.032Z,8.35
2022-11-22T13:59:17.182Z,8.33
2022-11-22T14:02:01.842Z,8.23
2022-11-22T14:04:40.550Z,8.16
2022-11-22T14:07:28.197Z,8.15
2022-11-22T14:10:00.781Z,8.16
2022-11-22T14:12:58.816Z,8.07
2022-11-22T14:15:47.295Z,8.02
2022-11-22T14:18:32.008Z,8.01
2022-11-22T14:21:05.509Z,7.97
2022-11-22T14:23:46.993Z,7.91
2022-11-22T14:26:28.275Z,7.85
2022-11-22T14:29:17.133Z,7.79
2022-11-22T14:31:54.227Z,7.74
2022-11-22T14:34:24.715Z,7.73
2022-11-22T14:37:33.707Z,7.65
2022-11-22T14:40:28.469Z,7.60
2022-11-22T14:43:05.117Z,7.53
2022-11-22T14:45:48.806Z,7.59
2022-11-22T14:48:20.401Z,7.57
2022-11-22T14:50:53.478Z,7.55
2022-11-22T14:53:30.947Z,7.57
2022-11-22T14:56:06.427Z,7.50
2022-11-22T14:58:40.416Z,7.47
2022-11-22T15:01:27.141Z,7.43
2022-11-22T15:09:17.454Z,7.40
2022-11-22T15:09:23.221Z,7.32
2022-11-22T15:10:31.784Z,7.23
2022-11-22T15:13:14.075Z,7.16
2022-11-22T15:59:11.563Z,6.51
2022-11-22T16:01:41.601Z,6.52
2022-11-22T16:04:21.938Z,6.47
2022-11-22T16:06:53.128Z,6.42
2022-11-22T16:09:29.097Z,6.42
2022-11-22T16:12:02.178Z,6.38
2022-11-22T16:14:50.888Z,6.35
2022-11-22T16:17:27.951Z,6.31
2022-11-22T16:20:28.371Z,6.27
2022-11-22T16:23:29.123Z,6.15
2022-11-22T16:26:00.581Z,6.16
2022-11-22T16:28:35.163Z,6.10
2022-11-22T16:31:07.875Z,6.13
2022-11-22T16:33:36.554Z,6.10
2022-11-22T16:36:11.942Z,6.13
2022-11-22T16:38:42.321Z,6.07
2022-11-22T16:41:18.087Z,6.12
2022-11-22T16:43:49.157Z,6.08
2022-11-22T16:46:18.516Z,6.03
2022-11-22T16:48:47.719Z,6.00
2022-11-22T16:51:18.135Z,6.06
2022-11-22T16:53:49.659Z,6.04
2022-11-22T16:56:20.678Z,6.06
2022-11-22T16:58:50.099Z,6.03
2022-11-22T17:01:21.970Z,5.93
2022-11-22T17:03:52.028Z,5.93
2022-11-22T17:06:22.784Z,5.89
2022-11-22T17:08:54.850Z,5.87
2022-11-22T17:11:25.837Z,5.88
2022-11-22T17:13:54.944Z,5.87
2022-11-22T17:16:23.441Z,5.89
2022-11-22T17:18:53.021Z,5.89
2022-11-22T17:21:26.240Z,5.90
2022-11-22T17:23:58.281Z,5.93
2022-11-22T17:26:27.599Z,5.92
2022-11-22T17:28:56.239Z,5.94
2022-11-22T17:31:25.082Z,5.92
2022-11-22T17:33:55.246Z,5.94
2022-11-22T17:36:28.642Z,5.94
2022-11-22T17:38:59.582Z,5.90
2022-11-22T17:41:30.416Z,5.89
2022-11-22T17:43:59.210Z,5.89
2022-11-22T17:46:28.071Z,5.88
2022-11-22T17:48:58.827Z,5.87
2022-11-22T17:51:29.204Z,5.85
2022-11-22T17:53:59.909Z,5.85
2022-11-22T17:56:30.461Z,5.84
2022-11-22T17:58:59.060Z,5.78
2022-11-22T18:01:27.517Z,5.73
2022-11-22T18:03:57.398Z,5.78
2022-11-22T18:06:27.105Z,5.81
2022-11-22T18:08:55.741Z,5.96
2022-11-22T18:11:25.630Z,6.00
2022-11-22T18:13:54.108Z,5.99
2022-11-22T18:16:28.179Z,5.95
2022-11-22T18:18:58.274Z,5.95
2022-11-22T18:21:29.245Z,5.90
2022-11-22T18:23:58.520Z,5.93
2022-11-22T18:26:39.195Z,5.94
2022-11-22T18:31:56.582Z,5.92
2022-11-22T18:34:26.403Z,5.90
2022-11-22T18:36:57.707Z,5.93
2022-11-22T18:39:30.764Z,5.90
2022-11-22T18:42:00.892Z,5.88
2022-11-22T18:44:29.437Z,5.85
2022-11-22T18:46:57.959Z,5.82
2022-11-22T18:49:26.567Z,5.80
2022-11-22T18:51:55.575Z,5.79
2022-11-22T18:54:24.492Z,5.81
2022-11-22T18:56:53.096Z,5.80
2022-11-22T18:59:23.014Z,5.80
2022-11-22T19:01:51.644Z,5.79
2022-11-22T19:04:20.209Z,5.80
2022-11-22T19:06:48.816Z,5.78
2022-11-22T19:09:17.288Z,5.78
2022-11-22T19:11:45.903Z,5.75
2022-11-22T19:14:14.437Z,5.74
2022-11-22T19:16:44.420Z,5.75
2022-11-22T19:19:13.110Z,5.74
2022-11-22T19:21:41.503Z,5.70
2022-11-22T19:24:10.154Z,5.71
2022-11-22T19:26:38.652Z,5.70
2022-11-22T19:29:07.171Z,5.65
2022-11-22T19:31:36.579Z,5.64
2022-11-22T19:34:06.769Z,5.66
2022-11-22T19:36:36.168Z,5.68
2022-11-22T19:39:06.218Z,5.64
2022-11-22T19:41:34.903Z,5.69
2022-11-22T19:44:04.382Z,5.61
2022-11-22T19:46:32.911Z,5.61
2022-11-22T19:49:02.322Z,5.62
2022-11-22T19:51:32.686Z,5.61
2022-11-22T19:54:03.022Z,5.52
2022-11-22T19:56:33.753Z,5.52
2022-11-22T19:59:03.699Z,5.47
2022-11-22T20:01:33.322Z,5.43
2022-11-22T20:04:04.440Z,5.42
2022-11-22T20:06:35.966Z,5.42
2022-11-22T20:09:09.192Z,5.37
2022-11-22T20:11:38.432Z,5.34
2022-11-22T20:14:07.505Z,5.26
2022-11-22T20:16:38.346Z,5.21
2022-11-22T20:19:09.563Z,5.22
2022-11-22T20:21:40.422Z,5.20
2022-11-22T20:24:09.527Z,5.08
2022-11-22T20:26:38.537Z,5.07
2022-11-22T20:29:09.077Z,5.08
2022-11-22T20:31:38.494Z,5.02
2022-11-22T20:34:07.041Z,5.02
2022-11-22T20:36:36.602Z,4.95
2022-11-22T20:39:10.345Z,4.95
2022-11-22T20:41:40.511Z,4.91
2022-11-22T20:44:12.724Z,4.91
2022-11-22T20:46:41.791Z,4.92
2022-11-22T20:49:10.349Z,4.93
2022-11-22T20:51:39.977Z,4.94
2022-11-22T20:54:10.712Z,4.95
2022-11-22T20:56:39.791Z,4.93
2022-11-22T20:59:08.435Z,4.91
2022-11-22T21:01:37.278Z,4.81
2022-11-22T21:04:06.194Z,4.83
2022-11-22T21:06:35.097Z,4.87
2022-11-22T21:09:03.619Z,4.81
2022-11-22T21:11:33.433Z,4.83
2022-11-22T21:14:01.922Z,4.77
2022-11-22T21:16:31.368Z,4.78
2022-11-22T21:19:01.911Z,4.79
2022-11-22T21:21:31.158Z,4.65
2022-11-22T21:24:01.310Z,4.61
2022-11-22T21:26:30.550Z,4.60
2022-11-22T21:29:03.248Z,4.58
2022-11-22T21:31:31.802Z,4.51
2022-11-22T21:34:00.310Z,4.43
2022-11-22T21:36:28.905Z,4.39
2022-11-22T21:38:57.350Z,4.32
2022-11-22T21:41:39.845Z,4.31
2022-11-22T21:44:11.647Z,4.16
2022-11-22T21:46:40.163Z,4.06
2022-11-22T21:49:08.975Z,4.02
2022-11-22T21:51:37.570Z,3.93
2022-11-22T21:54:06.351Z,3.91
2022-11-22T21:56:35.351Z,3.85
2022-11-22T21:59:03.955Z,3.88
2022-11-22T22:01:34.372Z,3.85
2022-11-22T22:04:03.492Z,3.73
2022-11-22T22:06:32.236Z,3.73
2022-11-22T22:09:01.245Z,3.64
2022-11-22T22:11:29.890Z,3.60
2022-11-22T22:13:59.084Z,3.59
2022-11-22T22:16:27.596Z,3.58
2022-11-22T22:18:57.465Z,3.57
2022-11-22T22:21:25.907Z,3.57
2022-11-22T22:23:54.431Z,3.48
2022-11-22T22:26:22.917Z,3.45
2022-11-22T22:28:52.994Z,3.31
2022-11-22T22:31:22.541Z,3.33
2022-11-22T22:33:54.081Z,3.29
2022-11-22T22:36:25.114Z,3.26
2022-11-22T22:38:54.571Z,3.25
2022-11-22T22:41:23.247Z,3.18
2022-11-22T22:43:51.696Z,3.17
2022-11-22T22:46:21.939Z,3.10
2022-11-22T22:48:51.023Z,3.08
2022-11-22T22:51:21.433Z,3.00
2022-11-22T22:53:51.431Z,2.85
2022-11-22T22:56:22.181Z,2.81
2022-11-22T22:58:54.440Z,2.78
2022-11-22T23:01:24.415Z,2.66
2022-11-22T23:03:54.894Z,2.51
2022-11-22T23:06:26.055Z,2.38
2022-11-22T23:08:56.753Z,2.33
2022-11-22T23:11:46.768Z,2.30
2022-11-22T23:14:17.067Z,2.24
2022-11-22T23:16:45.576Z,2.23
2022-11-22T23:19:16.028Z,2.24
2022-11-22T23:21:44.867Z,2.24
2022-11-22T23:24:14.683Z,2.21
2022-11-22T23:26:43.192Z,2.18
2022-11-22T23:29:11.986Z,2.10
2022-11-22T23:31:40.435Z,2.07
2022-11-22T23:34:12.153Z,2.10
2022-11-22T23:36:41.312Z,2.14
2022-11-22T23:39:10.269Z,2.12
2022-11-22T23:41:40.034Z,2.11
2022-11-22T23:44:08.567Z,2.15
2022-11-22T23:46:37.084Z,2.11
2022-11-22T23:49:06.292Z,2.04
2022-11-22T23:51:36.346Z,2.07
2022-11-22T23:54:06.885Z,2.04
2022-11-22T23:56:37.107Z,2.00
2022-11-22T23:59:06.953Z,2.00
